Time;durP1;ratioP1;P1;durP2;ratioP2;P2;SDS_P1;SDS_P2;PMS_P1;PMS_P2;Temp;Humidity;BMP_temperature;BMP_pressure;BME280_temperature;BME280_humidity;BME280_pressure;Samples;Min_cycle;Max_cycle;Signal;HPM_P1;HPM_P2
2024/01/06 00:01:12;;;;;;;12.98;11.48;;;13.80;72.00;;;;;;5053668;28;20021;-61
2024/01/06 00:03:38;;;;;;;11.20;9.05;;;13.80;73.90;;;;;;5053129;28;20028;-65
2024/01/06 00:06:03;;;;;;;11.93;9.98;;;13.80;73.00;;;;;;5053566;28;20460;-65
2024/01/06 00:08:29;;;;;;;14.73;11.40;;;13.80;73.90;;;;;;5053732;28;20049;-72
2024/01/06 00:10:55;;;;;;;14.95;10.38;;;13.70;73.50;;;;;;5053493;28;20025;-64
2024/01/06 00:13:21;;;;;;;9.50;8.20;;;13.70;73.70;;;;;;5053494;28;20025;-65
2024/01/06 00:15:46;;;;;;;12.52;10.43;;;13.70;73.30;;;;;;5053483;28;20025;-62
2024/01/06 00:18:12;;;;;;;14.90;12.43;;;13.70;76.40;;;;;;5053245;28;20021;-63
2024/01/06 00:20:38;;;;;;;17.60;14.65;;;13.70;75.70;;;;;;5053253;28;20083;-71
2024/01/06 00:23:04;;;;;;;16.45;14.10;;;13.60;76.80;;;;;;5053376;28;20013;-67
2024/01/06 00:25:30;;;;;;;15.80;12.13;;;13.60;77.20;;;;;;5052001;28;20388;-65
2024/01/06 00:27:55;;;;;;;24.55;17.95;;;13.50;79.30;;;;;;5053158;28;20028;-67
2024/01/06 00:30:21;;;;;;;18.08;14.40;;;13.40;80.60;;;;;;5053369;28;20106;-69
2024/01/06 00:32:47;;;;;;;18.33;14.43;;;13.30;82.50;;;;;;5053176;28;20021;-70
2024/01/06 00:35:12;;;;;;;21.60;17.33;;;13.20;83.20;;;;;;5053093;28;20025;-66
2024/01/06 00:37:38;;;;;;;21.90;17.33;;;13.10;85.50;;;;;;5053193;28;20036;-68
2024/01/06 00:40:04;;;;;;;22.90;17.58;;;13.10;86.40;;;;;;5053101;28;20391;-68
2024/01/06 00:42:30;;;;;;;19.58;15.43;;;13.00;87.70;;;;;;5053049;28;20453;-65
2024/01/06 00:44:56;;;;;;;16.92;13.55;;;12.90;88.90;;;;;;5053279;28;20056;-69
2024/01/06 00:47:24;;;;;;;20.45;15.50;;;12.90;89.50;;;;;;5052956;28;20075;-64
2024/01/06 00:49:49;;;;;;;16.65;13.32;;;12.90;90.00;;;;;;5051995;28;20029;-69
2024/01/06 00:52:15;;;;;;;13.57;11.60;;;12.90;90.40;;;;;;5053045;28;20036;-65
2024/01/06 00:54:41;;;;;;;14.82;11.35;;;12.90;91.20;;;;;;5053107;28;20096;-68
2024/01/06 00:57:07;;;;;;;15.05;11.68;;;12.90;90.80;;;;;;5052011;28;20025;-71
2024/01/06 00:59:33;;;;;;;12.85;11.02;;;12.90;91.10;;;;;;5052817;28;20123;-61
2024/01/06 01:01:58;;;;;;;15.52;12.70;;;12.90;90.90;;;;;;5052904;28;20024;-63
2024/01/06 01:04:24;;;;;;;14.68;12.65;;;13.00;90.50;;;;;;5051771;28;20017;-65
2024/01/06 01:06:50;;;;;;;16.85;13.50;;;12.90;90.40;;;;;;5052803;28;20451;-64
2024/01/06 01:09:15;;;;;;;18.75;14.63;;;12.90;90.70;;;;;;5052935;28;20033;-67
2024/01/06 01:11:41;;;;;;;15.68;13.60;;;12.80;90.80;;;;;;5052933;28;20087;-61
2024/01/06 01:14:08;;;;;;;16.35;14.07;;;12.70;90.80;;;;;;5052766;28;20025;-66
2024/01/06 01:16:34;;;;;;;18.05;14.73;;;12.70;91.20;;;;;;5055519;28;20032;-66
2024/01/06 01:19:01;;;;;;;14.82;12.93;;;12.70;91.30;;;;;;5056852;28;20383;-67
2024/01/06 01:21:28;;;;;;;17.63;14.23;;;12.60;91.20;;;;;;5055373;28;20074;-67
2024/01/06 01:23:53;;;;;;;16.70;13.23;;;12.50;91.60;;;;;;5056711;28;20414;-71
2024/01/06 01:26:19;;;;;;;17.25;14.27;;;12.40;91.60;;;;;;5056609;28;20036;-63
2024/01/06 01:28:45;;;;;;;16.92;14.60;;;12.40;92.20;;;;;;5056861;28;20091;-65
2024/01/06 01:31:11;;;;;;;16.90;13.38;;;12.20;92.90;;;;;;5056307;28;20025;-70
2024/01/06 01:33:37;;;;;;;13.40;11.82;;;12.20;93.10;;;;;;5056412;28;20105;-71
2024/01/06 01:36:03;;;;;;;16.77;13.23;;;12.10;93.30;;;;;;5056413;28;20108;-66
2024/01/06 01:38:29;;;;;;;21.65;17.73;;;12.10;93.50;;;;;;5056286;28;20074;-65
2024/01/06 01:40:54;;;;;;;17.48;15.52;;;12.00;94.80;;;;;;5056426;28;20104;-63
2024/01/06 01:43:21;;;;;;;17.25;14.68;;;11.90;95.30;;;;;;5056305;28;20384;-65
2024/01/06 01:45:55;;;;;;;15.75;13.40;;;11.90;95.30;;;;;;5056018;28;20116;-65
2024/01/06 01:48:22;;;;;;;16.48;13.82;;;11.90;95.30;;;;;;5054850;28;20025;-66
2024/01/06 01:50:49;;;;;;;15.18;12.60;;;11.90;95.10;;;;;;5056131;28;20045;-65
2024/01/06 01:53:14;;;;;;;15.50;13.10;;;11.80;95.00;;;;;;5054996;28;20382;-67
2024/01/06 01:55:44;;;;;;;15.02;13.10;;;11.90;95.10;;;;;;5055962;28;20100;-64
2024/01/06 01:58:13;;;;;;;12.93;11.57;;;11.80;95.10;;;;;;5055663;28;20102;-67
2024/01/06 02:00:38;;;;;;;13.27;10.80;;;11.80;95.30;;;;;;5056195;28;20056;-72
2024/01/06 02:03:05;;;;;;;17.08;13.48;;;11.80;95.50;;;;;;5055909;28;20021;-63
2024/01/06 02:05:31;;;;;;;18.63;14.68;;;11.70;95.60;;;;;;5055696;28;20096;-67
2024/01/06 02:07:57;;;;;;;17.55;14.60;;;11.60;96.30;;;;;;5055824;28;20570;-61
2024/01/06 02:10:23;;;;;;;15.88;12.43;;;11.40;97.00;;;;;;5055794;28;20494;-67
2024/01/06 02:12:51;;;;;;;25.98;21.33;;;11.40;97.20;;;;;;5055581;28;20055;-62
2024/01/06 02:15:18;;;;;;;31.02;23.83;;;11.30;97.70;;;;;;5055596;28;20024;-65
2024/01/06 02:17:44;;;;;;;31.52;25.20;;;11.20;98.50;;;;;;5055689;28;20025;-66
2024/01/06 02:20:11;;;;;;;29.45;23.35;;;11.10;98.90;;;;;;5054353;28;20087;-65
2024/01/06 02:22:37;;;;;;;26.33;20.90;;;11.00;99.50;;;;;;5055477;28;20021;-67
2024/01/06 02:25:12;;;;;;;24.73;20.13;;;11.10;99.70;;;;;;5055825;28;20430;-70
2024/01/06 02:27:38;;;;;;;25.15;21.10;;;11.10;99.50;;;;;;5054115;28;20503;-70
2024/01/06 02:30:05;;;;;;;22.55;19.05;;;11.00;99.80;;;;;;5055377;28;20043;-68
2024/01/06 02:32:31;;;;;;;21.70;17.80;;;11.00;99.70;;;;;;5055414;28;20021;-66
2024/01/06 02:34:57;;;;;;;21.15;17.33;;;11.10;99.20;;;;;;5055361;28;20028;-64
2024/01/06 02:37:22;;;;;;;19.08;15.20;;;11.10;98.60;;;;;;5055165;28;20479;-66
2024/01/06 02:39:48;;;;;;;15.10;13.52;;;11.10;98.70;;;;;;5055291;28;20020;-66
2024/01/06 02:42:14;;;;;;;15.80;13.32;;;11.10;98.80;;;;;;5053863;28;20025;-65
2024/01/06 02:44:39;;;;;;;16.58;13.15;;;11.10;98.50;;;;;;5055060;28;20021;-66
2024/01/06 02:47:05;;;;;;;16.02;12.32;;;11.10;98.40;;;;;;5055125;28;20060;-63
2024/01/06 02:49:30;;;;;;;14.75;12.00;;;11.00;98.60;;;;;;5054998;28;20017;-65
2024/01/06 02:51:56;;;;;;;13.20;11.05;;;11.00;98.70;;;;;;5054995;28;20040;-69
2024/01/06 02:54:22;;;;;;;13.18;10.85;;;11.00;98.70;;;;;;5053747;28;20036;-67
2024/01/06 02:56:47;;;;;;;15.02;12.10;;;11.00;98.60;;;;;;5054792;28;20028;-65
2024/01/06 02:59:13;;;;;;;13.13;10.70;;;11.10;98.90;;;;;;5055076;28;20126;-72
2024/01/06 03:01:39;;;;;;;12.00;10.13;;;11.00;98.90;;;;;;5054729;28;20032;-66
2024/01/06 03:04:04;;;;;;;11.32;9.30;;;11.10;99.00;;;;;;5054798;28;20025;-70
2024/01/06 03:06:30;;;;;;;17.98;12.35;;;11.10;99.10;;;;;;5054756;28;20035;-66
2024/01/06 03:08:56;;;;;;;18.15;14.50;;;11.10;99.50;;;;;;5054646;28;20028;-67
2024/01/06 03:11:22;;;;;;;14.90;12.77;;;11.10;99.80;;;;;;5054473;28;20022;-68
2024/01/06 03:13:48;;;;;;;16.75;13.85;;;11.10;99.90;;;;;;5054601;28;20021;-65
2024/01/06 03:16:14;;;;;;;14.65;12.15;;;11.10;99.90;;;;;;5054393;28;20025;-68
2024/01/06 03:18:39;;;;;;;13.13;11.70;;;11.10;99.90;;;;;;5053197;28;20049;-65
2024/01/06 03:21:05;;;;;;;12.85;10.50;;;11.20;99.90;;;;;;5054434;28;20095;-67
2024/01/06 03:23:31;;;;;;;11.77;10.38;;;11.30;99.90;;;;;;5054236;28;20032;-63
2024/01/06 03:25:57;;;;;;;14.68;11.48;;;11.30;99.90;;;;;;5054227;28;20499;-65
2024/01/06 03:28:22;;;;;;;12.02;10.57;;;11.30;99.90;;;;;;5054332;28;20036;-62
2024/01/06 03:30:48;;;;;;;11.80;10.18;;;11.30;99.90;;;;;;5053021;28;20471;-63
2024/01/06 03:33:14;;;;;;;11.70;10.18;;;11.30;99.90;;;;;;5054060;28;20044;-65
2024/01/06 03:35:39;;;;;;;16.20;12.40;;;11.40;99.90;;;;;;5054075;28;20021;-68
2024/01/06 03:38:05;;;;;;;16.45;11.98;;;11.30;99.80;;;;;;5053765;28;20055;-65
2024/01/06 03:40:31;;;;;;;12.82;10.48;;;11.30;99.90;;;;;;5053758;28;20498;-68
2024/01/06 03:42:56;;;;;;;11.93;9.98;;;11.20;99.90;;;;;;5054135;28;20128;-65
2024/01/06 03:45:22;;;;;;;13.45;10.43;;;11.30;99.90;;;;;;5054040;28;20032;-67
2024/01/06 03:47:48;;;;;;;10.73;9.30;;;11.30;99.90;;;;;;5052501;28;20037;-66
2024/01/06 03:50:13;;;;;;;10.25;8.60;;;11.30;99.90;;;;;;5054053;28;20078;-67
2024/01/06 03:52:39;;;;;;;10.50;9.40;;;11.40;99.80;;;;;;5053751;28;20025;-67
2024/01/06 03:55:06;;;;;;;11.35;9.75;;;11.30;99.90;;;;;;5053536;28;20024;-65
2024/01/06 03:57:31;;;;;;;13.77;11.40;;;11.30;99.80;;;;;;5052292;28;20033;-68
2024/01/06 03:59:57;;;;;;;12.80;10.27;;;11.30;99.70;;;;;;5053747;28;20532;-65
2024/01/06 04:02:23;;;;;;;10.27;9.15;;;11.20;99.90;;;;;;5052389;28;20107;-68
2024/01/06 04:04:49;;;;;;;15.82;11.25;;;11.20;99.90;;;;;;5053556;28;20017;-67
2024/01/06 04:07:15;;;;;;;14.30;12.60;;;11.20;99.90;;;;;;5053549;28;20427;-63
2024/01/06 04:09:44;;;;;;;16.33;13.10;;;11.20;99.90;;;;;;5052103;28;20057;-65
2024/01/06 04:12:09;;;;;;;15.35;11.35;;;11.00;99.90;;;;;;5053427;28;20021;-65
2024/01/06 04:14:35;;;;;;;14.50;12.23;;;11.00;99.90;;;;;;5053496;28;20021;-68
2024/01/06 04:17:01;;;;;;;13.00;10.70;;;11.00;99.90;;;;;;5053448;28;20025;-67
2024/01/06 04:19:26;;;;;;;11.02;9.57;;;11.10;99.90;;;;;;5053379;28;20049;-68
2024/01/06 04:21:52;;;;;;;10.10;8.80;;;11.10;99.90;;;;;;5053278;28;20426;-62
2024/01/06 04:24:18;;;;;;;14.73;12.18;;;11.10;99.90;;;;;;5053094;28;20071;-70
2024/01/06 04:26:44;;;;;;;15.50;12.45;;;11.10;99.90;;;;;;5053225;28;20055;-63
2024/01/06 04:29:11;;;;;;;26.23;16.63;;;11.10;99.90;;;;;;5053530;28;20100;-62
2024/01/06 04:31:37;;;;;;;21.08;17.60;;;11.10;99.90;;;;;;5052071;28;20428;-71
2024/01/06 04:34:03;;;;;;;28.17;20.77;;;11.00;99.90;;;;;;5053090;28;20021;-65
2024/01/06 04:36:29;;;;;;;22.88;18.92;;;11.00;99.90;;;;;;5053250;28;20025;-62
2024/01/06 04:38:55;;;;;;;25.20;20.00;;;10.90;99.90;;;;;;5053091;28;20017;-61
2024/01/06 04:41:21;;;;;;;27.50;22.02;;;10.90;99.90;;;;;;5053294;28;20029;-66
2024/01/06 04:43:47;;;;;;;32.25;26.25;;;11.00;99.90;;;;;;5053148;28;20075;-68
2024/01/06 04:46:12;;;;;;;31.13;25.40;;;10.90;99.90;;;;;;5053071;28;20057;-65
2024/01/06 04:48:41;;;;;;;32.60;24.80;;;10.80;99.90;;;;;;5053219;28;20025;-62
2024/01/06 04:51:09;;;;;;;26.58;21.33;;;10.80;99.90;;;;;;5053899;28;20061;-69
2024/01/06 04:53:36;;;;;;;28.75;22.10;;;10.90;99.90;;;;;;5057043;28;20035;-67
2024/01/06 04:56:02;;;;;;;21.20;18.70;;;10.90;99.90;;;;;;5057197;28;20104;-69
2024/01/06 04:58:27;;;;;;;25.23;20.20;;;10.90;99.90;;;;;;5056813;28;20571;-63
2024/01/06 05:00:53;;;;;;;21.85;18.27;;;11.00;99.90;;;;;;5055995;28;20032;-66
2024/01/06 05:03:19;;;;;;;25.98;20.08;;;10.90;99.90;;;;;;5057040;28;20025;-65
2024/01/06 05:05:45;;;;;;;22.60;18.98;;;10.80;99.90;;;;;;5056719;28;20024;-65
2024/01/06 05:08:10;;;;;;;23.50;20.98;;;10.80;99.90;;;;;;5056856;28;20017;-62
2024/01/06 05:10:36;;;;;;;23.45;18.00;;;10.70;99.90;;;;;;5055709;28;20018;-66
2024/01/06 05:13:02;;;;;;;20.60;17.83;;;10.80;99.90;;;;;;5056742;28;20021;-66
2024/01/06 05:15:28;;;;;;;17.58;15.52;;;10.90;99.90;;;;;;5056819;28;20021;-62
2024/01/06 05:17:53;;;;;;;16.60;14.52;;;10.90;99.90;;;;;;5056811;28;20048;-69
2024/01/06 05:20:19;;;;;;;15.48;13.25;;;10.90;99.90;;;;;;5055388;28;20061;-70
2024/01/06 05:22:45;;;;;;;13.13;11.55;;;10.90;99.90;;;;;;5056719;28;20441;-67
2024/01/06 05:25:10;;;;;;;11.90;10.20;;;10.80;99.90;;;;;;5056631;28;20111;-69
2024/01/06 05:27:36;;;;;;;10.52;8.55;;;10.90;99.90;;;;;;5056523;28;20513;-69
2024/01/06 05:30:02;;;;;;;10.07;8.75;;;10.90;99.90;;;;;;5055295;28;20017;-68
2024/01/06 05:32:28;;;;;;;9.52;8.30;;;10.90;99.90;;;;;;5056575;28;20075;-68
2024/01/06 05:34:53;;;;;;;8.55;7.65;;;11.00;99.90;;;;;;5056534;28;20021;-63
2024/01/06 05:37:19;;;;;;;8.43;7.15;;;11.00;99.90;;;;;;5056111;28;20029;-65
2024/01/06 05:39:45;;;;;;;8.10;7.28;;;11.00;99.90;;;;;;5056442;28;20494;-68
2024/01/06 05:42:12;;;;;;;8.05;7.07;;;11.00;99.90;;;;;;5056326;28;20029;-64
2024/01/06 05:44:37;;;;;;;9.20;7.15;;;11.00;99.90;;;;;;5056194;28;20063;-69
2024/01/06 05:47:04;;;;;;;6.97;6.10;;;11.00;99.90;;;;;;5054824;28;20495;-69
2024/01/06 05:49:29;;;;;;;8.18;6.63;;;11.00;99.90;;;;;;5056290;28;20104;-68
2024/01/06 05:51:55;;;;;;;6.88;6.18;;;11.00;99.90;;;;;;5055898;28;20053;-63
2024/01/06 05:54:21;;;;;;;7.70;6.63;;;11.00;99.90;;;;;;5056139;28;20021;-61
2024/01/06 05:56:47;;;;;;;7.00;5.80;;;11.00;99.90;;;;;;5054922;28;20032;-65
2024/01/06 05:59:12;;;;;;;7.53;6.68;;;11.10;99.90;;;;;;5055798;28;20044;-66
2024/01/06 06:01:38;;;;;;;9.88;8.05;;;11.00;99.90;;;;;;5055612;28;20025;-65
2024/01/06 06:04:04;;;;;;;8.23;7.35;;;11.00;99.90;;;;;;5055939;28;20421;-65
2024/01/06 06:06:30;;;;;;;13.65;10.75;;;11.00;99.90;;;;;;5055721;28;20032;-68
2024/01/06 06:08:56;;;;;;;13.07;11.38;;;11.10;99.90;;;;;;5055825;28;20376;-68
2024/01/06 06:11:21;;;;;;;17.33;13.18;;;11.10;99.90;;;;;;5055858;28;20021;-68
2024/01/06 06:13:47;;;;;;;16.65;13.73;;;11.10;99.90;;;;;;5054475;28;20029;-66
2024/01/06 06:16:13;;;;;;;20.67;16.27;;;11.20;99.90;;;;;;5054277;28;20037;-70
2024/01/06 06:18:39;;;;;;;18.80;15.40;;;11.20;99.90;;;;;;5055638;28;20029;-67
2024/01/06 06:21:06;;;;;;;19.55;16.08;;;11.20;99.90;;;;;;5055453;28;20383;-67
2024/01/06 06:23:32;;;;;;;20.45;16.92;;;11.20;99.90;;;;;;5055393;28;20471;-63
2024/01/06 06:25:59;;;;;;;19.42;16.63;;;11.20;99.90;;;;;;5055650;28;20036;-68
2024/01/06 06:28:25;;;;;;;19.88;16.27;;;11.10;99.90;;;;;;5055512;28;20572;-63
2024/01/06 06:30:51;;;;;;;21.65;16.77;;;11.20;99.90;;;;;;5055351;28;20017;-70
2024/01/06 06:33:17;;;;;;;11.63;9.60;;;11.10;99.90;;;;;;5055539;28;20017;-64
2024/01/06 06:35:43;;;;;;;20.35;14.82;;;11.20;99.90;;;;;;5055285;28;20017;-70
2024/01/06 06:38:08;;;;;;;20.17;16.67;;;11.30;99.90;;;;;;5054106;28;20387;-66
2024/01/06 06:40:34;;;;;;;20.65;17.45;;;11.40;99.90;;;;;;5055211;28;20444;-69
2024/01/06 06:43:00;;;;;;;23.05;18.58;;;11.40;99.90;;;;;;5055331;28;20078;-66
2024/01/06 06:45:25;;;;;;;24.30;18.75;;;11.50;99.90;;;;;;5055250;28;20022;-66
2024/01/06 06:47:51;;;;;;;19.10;16.98;;;11.50;99.90;;;;;;5055384;28;20033;-67
2024/01/06 06:50:17;;;;;;;20.25;16.13;;;11.40;99.90;;;;;;5054937;28;20490;-65
2024/01/06 06:52:44;;;;;;;17.83;15.43;;;11.50;99.90;;;;;;5055028;28;20071;-70
2024/01/06 06:55:10;;;;;;;18.92;15.52;;;11.50;99.90;;;;;;5054874;28;20036;-66
2024/01/06 06:57:36;;;;;;;20.52;16.20;;;11.60;99.90;;;;;;5054758;28;20017;-68
2024/01/06 07:00:02;;;;;;;17.75;15.23;;;11.50;99.90;;;;;;5054757;28;20056;-70
2024/01/06 07:02:28;;;;;;;18.10;15.85;;;11.50;99.90;;;;;;5054705;28;20086;-65
2024/01/06 07:04:54;;;;;;;22.17;17.52;;;11.60;99.90;;;;;;5054710;28;20025;-65
2024/01/06 07:07:19;;;;;;;19.52;16.33;;;11.60;99.90;;;;;;5054753;28;20048;-69
2024/01/06 07:09:45;;;;;;;20.48;16.17;;;11.70;99.90;;;;;;5054754;28;20025;-68
2024/01/06 07:12:11;;;;;;;21.33;17.63;;;11.70;99.90;;;;;;5054591;28;20569;-70
2024/01/06 07:14:37;;;;;;;19.27;17.15;;;11.80;99.90;;;;;;5053852;28;20044;-62
2024/01/06 07:17:04;;;;;;;22.95;18.58;;;11.90;99.90;;;;;;5054530;28;20475;-66
2024/01/06 07:19:31;;;;;;;21.48;18.95;;;12.00;99.90;;;;;;5054270;28;20021;-63
2024/01/06 07:21:57;;;;;;;21.15;18.15;;;12.00;99.30;;;;;;5054707;28;20021;-63
2024/01/06 07:24:23;;;;;;;19.48;16.38;;;12.00;99.40;;;;;;5054602;28;20499;-65
2024/01/06 07:26:48;;;;;;;21.45;18.65;;;12.10;99.40;;;;;;5054191;28;20025;-65
2024/01/06 07:29:14;;;;;;;19.77;17.42;;;12.20;98.90;;;;;;5054575;28;20052;-69
2024/01/06 07:31:40;;;;;;;19.65;17.55;;;12.20;99.10;;;;;;5054243;28;20025;-68
2024/01/06 07:34:06;;;;;;;25.42;21.58;;;12.20;98.80;;;;;;5053952;28;20013;-68
2024/01/06 07:36:32;;;;;;;25.30;22.45;;;12.30;98.30;;;;;;5054120;28;20099;-70
2024/01/06 07:38:57;;;;;;;25.50;22.63;;;12.40;97.00;;;;;;5054180;28;20573;-63
2024/01/06 07:41:23;;;;;;;16.23;14.50;;;12.50;95.80;;;;;;5054171;28;20025;-65
2024/01/06 07:43:49;;;;;;;19.77;15.07;;;12.80;93.20;;;;;;5054176;28;20100;-70
2024/01/06 07:46:15;;;;;;;17.25;13.50;;;13.10;92.00;;;;;;5053933;28;20059;-63
2024/01/06 07:48:41;;;;;;;15.50;12.70;;;13.30;91.40;;;;;;5053876;28;20048;-65
2024/01/06 07:51:06;;;;;;;10.95;9.55;;;13.40;90.40;;;;;;5053685;28;20059;-68
2024/01/06 07:53:33;;;;;;;6.13;5.53;;;13.60;84.90;;;;;;5053857;28;20047;-68
2024/01/06 07:55:58;;;;;;;6.10;5.47;;;13.80;80.00;;;;;;5053904;28;20025;-69
2024/01/06 07:58:24;;;;;;;13.20;11.05;;;14.10;76.10;;;;;;5053455;28;20049;-66
2024/01/06 08:00:50;;;;;;;22.45;19.30;;;14.30;77.90;;;;;;5053599;28;20115;-66
2024/01/06 08:03:16;;;;;;;11.82;10.55;;;14.30;79.20;;;;;;5053532;28;20448;-66
2024/01/06 08:05:42;;;;;;;13.30;11.80;;;14.30;75.80;;;;;;5053432;28;20021;-65
2024/01/06 08:08:08;;;;;;;16.58;14.88;;;14.40;79.60;;;;;;5053456;28;20078;-66
2024/01/06 08:10:33;;;;;;;8.98;8.07;;;14.30;78.80;;;;;;5053605;28;20025;-69
2024/01/06 08:12:59;;;;;;;3.53;2.55;;;14.40;73.20;;;;;;5053449;28;20021;-69
2024/01/06 08:15:24;;;;;;;2.55;2.35;;;14.60;67.90;;;;;;5053637;28;20057;-61
2024/01/06 08:17:50;;;;;;;12.43;9.80;;;14.80;66.90;;;;;;5053270;28;20494;-64
2024/01/06 08:20:16;;;;;;;6.05;5.45;;;14.90;69.00;;;;;;5052226;28;20051;-71
2024/01/06 08:22:41;;;;;;;7.28;6.57;;;14.90;66.90;;;;;;5052195;28;20040;-68
2024/01/06 08:25:07;;;;;;;6.97;6.15;;;14.90;68.30;;;;;;5053327;28;20035;-63
2024/01/06 08:27:33;;;;;;;6.78;6.07;;;14.90;66.70;;;;;;5053311;28;20128;-67
2024/01/06 08:29:59;;;;;;;7.30;6.60;;;15.00;69.70;;;;;;5051949;28;20055;-66
2024/01/06 08:32:25;;;;;;;7.30;6.60;;;15.00;69.30;;;;;;5053034;28;20019;-65
2024/01/06 08:34:51;;;;;;;8.43;7.35;;;15.00;67.00;;;;;;5053298;28;20022;-67
2024/01/06 08:37:16;;;;;;;1.20;1.10;;;15.00;67.30;;;;;;5053201;28;20029;-63
2024/01/06 08:39:42;;;;;;;1.70;1.60;;;15.20;64.10;;;;;;5051802;28;20028;-65
2024/01/06 08:42:08;;;;;;;3.53;3.22;;;15.30;63.80;;;;;;5051996;28;20083;-67
2024/01/06 08:44:33;;;;;;;1.48;1.15;;;15.40;64.20;;;;;;5051810;28;20049;-63
2024/01/06 08:46:59;;;;;;;1.33;1.20;;;15.40;61.80;;;;;;5052897;28;20060;-64
2024/01/06 08:49:25;;;;;;;3.42;2.97;;;15.50;61.80;;;;;;5053114;28;20495;-65
2024/01/06 08:51:51;;;;;;;8.35;7.40;;;15.50;63.90;;;;;;5053023;28;20021;-62
2024/01/06 08:54:16;;;;;;;7.20;6.50;;;15.40;64.10;;;;;;5053014;28;20051;-64
2024/01/06 08:56:42;;;;;;;7.03;6.32;;;15.30;67.30;;;;;;5053169;28;20036;-69
2024/01/06 08:59:07;;;;;;;6.20;5.60;;;15.30;68.10;;;;;;5051584;28;20092;-67
2024/01/06 09:01:35;;;;;;;7.60;6.90;;;15.20;67.70;;;;;;5052592;28;20022;-70
2024/01/06 09:04:02;;;;;;;16.83;14.07;;;15.20;68.30;;;;;;5052863;28;20116;-62
2024/01/06 09:06:28;;;;;;;7.65;6.85;;;15.10;69.00;;;;;;5052841;28;20063;-70
2024/01/06 09:08:53;;;;;;;6.03;5.38;;;15.10;66.10;;;;;;5052770;28;20025;-68
2024/01/06 09:11:19;;;;;;;5.90;4.88;;;15.20;66.50;;;;;;5053032;28;20475;-64
2024/01/06 09:13:45;;;;;;;5.75;5.20;;;15.20;67.50;;;;;;5052882;28;20100;-61
2024/01/06 09:16:10;;;;;;;6.38;5.30;;;15.20;66.50;;;;;;5052518;28;20028;-72
2024/01/06 09:18:36;;;;;;;9.43;8.25;;;15.30;64.80;;;;;;5052928;28;20451;-65
2024/01/06 09:21:03;;;;;;;11.05;8.82;;;15.30;64.10;;;;;;5053150;28;20017;-71
2024/01/06 09:23:28;;;;;;;8.52;7.63;;;15.40;69.40;;;;;;5052699;28;20035;-66
2024/01/06 09:25:54;;;;;;;10.07;6.70;;;15.30;68.30;;;;;;5052689;28;20025;-67
2024/01/06 09:28:23;;;;;;;17.77;15.98;;;15.20;68.20;;;;;;5052730;28;20021;-68
2024/01/06 09:30:49;;;;;;;18.38;16.58;;;15.20;74.00;;;;;;5052372;28;20025;-67
2024/01/06 09:33:17;;;;;;;6.20;5.60;;;15.10;72.90;;;;;;5052717;28;20055;-66
2024/01/06 09:35:44;;;;;;;3.55;2.90;;;15.10;64.50;;;;;;5052694;28;20024;-65
2024/01/06 09:38:10;;;;;;;7.68;6.25;;;15.30;62.40;;;;;;5056273;28;20025;-66
2024/01/06 09:40:43;;;;;;;4.38;3.47;;;15.40;64.40;;;;;;5055063;28;20445;-67
2024/01/06 09:43:09;;;;;;;8.00;7.20;;;15.50;61.60;;;;;;5056210;28;20437;-64
2024/01/06 09:45:35;;;;;;;6.72;6.03;;;15.60;62.50;;;;;;5056153;28;20096;-68
2024/01/06 09:48:10;;;;;;;5.97;5.30;;;15.60;61.00;;;;;;5056220;28;20032;-61
2024/01/06 09:50:36;;;;;;;6.78;5.85;;;15.60;61.20;;;;;;5054858;28;20030;-67
2024/01/06 09:53:05;;;;;;;18.60;16.52;;;15.60;62.60;;;;;;5056049;28;20028;-70
2024/01/06 09:55:31;;;;;;;19.00;17.00;;;15.60;63.40;;;;;;5056200;28;20028;-67
2024/01/06 09:57:57;;;;;;;42.70;38.03;;;15.60;63.10;;;;;;5055694;28;20446;-67
2024/01/06 10:00:23;;;;;;;44.78;39.85;;;15.60;70.80;;;;;;5055905;28;20021;-67
2024/01/06 10:02:49;;;;;;;61.17;54.65;;;15.50;73.80;;;;;;5055844;28;20467;-67
2024/01/06 10:05:18;;;;;;;51.05;45.95;;;15.30;82.10;;;;;;5055832;28;20021;-68
2024/01/06 10:07:45;;;;;;;89.35;80.18;;;15.10;84.70;;;;;;5055801;28;20518;-70
2024/01/06 10:10:11;;;;;;;53.80;48.35;;;14.90;90.30;;;;;;5055820;28;20075;-64
2024/01/06 10:12:39;;;;;;;41.15;37.03;;;14.80;86.50;;;;;;5054584;28;20067;-61
2024/01/06 10:15:06;;;;;;;36.88;33.33;;;14.90;85.00;;;;;;5055703;28;20048;-65
2024/01/06 10:17:32;;;;;;;27.33;24.50;;;14.90;78.60;;;;;;5054423;28;20031;-70
2024/01/06 10:19:59;;;;;;;14.48;13.07;;;15.10;78.10;;;;;;5055729;28;20104;-64
2024/01/06 10:22:25;;;;;;;10.50;9.50;;;15.30;66.70;;;;;;5054083;28;20044;-68
2024/01/06 10:24:50;;;;;;;9.57;8.68;;;15.50;64.70;;;;;;5055559;28;20494;-64
2024/01/06 10:27:16;;;;;;;5.45;4.90;;;15.70;65.60;;;;;;5055230;28;20029;-65
2024/01/06 10:29:42;;;;;;;6.60;6.00;;;15.80;62.20;;;;;;5055503;28;20025;-60
2024/01/06 10:32:08;;;;;;;6.32;5.43;;;15.90;62.50;;;;;;5055355;28;20036;-65
2024/01/06 10:34:36;;;;;;;5.68;4.78;;;16.00;59.80;;;;;;5055409;28;20384;-68
2024/01/06 10:37:02;;;;;;;4.72;4.22;;;16.20;59.20;;;;;;5055368;28;20536;-68
2024/01/06 10:39:29;;;;;;;4.50;4.10;;;16.30;59.60;;;;;;5055227;28;20112;-62
2024/01/06 10:41:55;;;;;;;4.95;4.45;;;16.40;59.50;;;;;;5055162;28;20048;-63
2024/01/06 10:44:23;;;;;;;4.53;4.07;;;16.50;59.10;;;;;;5055225;28;20040;-65
2024/01/06 10:46:50;;;;;;;4.40;4.00;;;16.60;59.50;;;;;;5055025;28;20059;-64
2024/01/06 10:49:21;;;;;;;6.45;5.70;;;16.70;58.90;;;;;;5053996;28;20086;-68
2024/01/06 10:51:48;;;;;;;7.18;6.10;;;16.80;57.50;;;;;;5054989;28;20024;-63
2024/01/06 10:54:15;;;;;;;5.03;4.47;;;16.90;56.70;;;;;;5054886;28;20017;-69
2024/01/06 10:56:43;;;;;;;4.82;4.32;;;17.00;58.10;;;;;;5054863;28;20020;-66
2024/01/06 10:59:11;;;;;;;4.78;4.22;;;17.20;58.40;;;;;;5054761;28;20045;-68
2024/01/06 11:01:39;;;;;;;4.53;4.13;;;17.40;58.50;;;;;;5054764;28;20048;-68
2024/01/06 11:04:05;;;;;;;5.85;5.25;;;17.50;57.80;;;;;;5054873;28;20065;-69
2024/01/06 11:06:33;;;;;;;7.43;6.68;;;17.60;54.90;;;;;;5054635;28;20112;-64
2024/01/06 11:09:11;;;;;;;9.73;7.78;;;17.70;54.60;;;;;;5054635;28;20017;-67
2024/01/06 11:11:37;;;;;;;7.40;6.65;;;17.70;53.60;;;;;;5054513;28;20435;-68
2024/01/06 11:14:21;;;;;;;5.07;4.57;;;17.70;52.50;;;;;;5054465;28;20055;-68
2024/01/06 11:16:47;;;;;;;7.15;6.45;;;17.60;52.20;;;;;;5054516;28;20025;-62
2024/01/06 11:19:33;;;;;;;3.08;2.78;;;17.50;52.60;;;;;;5054383;28;20028;-68
2024/01/06 11:22:26;;;;;;;7.07;5.60;;;17.40;52.10;;;;;;5053679;28;20033;-64
2024/01/06 11:24:55;;;;;;;6.32;5.10;;;17.40;53.20;;;;;;5052826;28;20482;-63
2024/01/06 11:27:26;;;;;;;2.30;1.77;;;17.40;52.30;;;;;;5054443;28;20111;-65
2024/01/06 11:29:54;;;;;;;2.50;2.30;;;17.30;51.80;;;;;;5054212;28;20021;-67
2024/01/06 11:32:33;;;;;;;2.08;1.83;;;17.30;52.80;;;;;;5054365;28;20053;-63
2024/01/06 11:35:08;;;;;;;1.55;1.20;;;17.20;52.40;;;;;;5054207;28;20029;-65
2024/01/06 11:37:39;;;;;;;1.90;1.80;;;17.10;52.60;;;;;;5054230;28;20025;-69
2024/01/06 11:40:21;;;;;;;1.83;1.73;;;17.10;53.10;;;;;;5053977;28;20364;-63
2024/01/06 11:43:08;;;;;;;1.40;1.23;;;17.10;52.50;;;;;;5054193;28;20032;-66
2024/01/06 11:45:35;;;;;;;13.55;10.73;;;17.20;53.40;;;;;;5053939;28;20012;-69
2024/01/06 11:48:05;;;;;;;5.38;4.88;;;17.10;53.20;;;;;;5053867;28;20033;-66
2024/01/06 11:50:33;;;;;;;3.58;3.13;;;17.10;53.10;;;;;;5053992;28;20025;-65
2024/01/06 11:52:59;;;;;;;6.45;4.15;;;17.00;52.80;;;;;;5053778;28;20029;-66
2024/01/06 11:55:29;;;;;;;2.13;1.88;;;17.00;52.50;;;;;;5053735;28;20028;-64
2024/01/06 11:57:56;;;;;;;3.70;3.05;;;17.10;52.40;;;;;;5053478;28;20045;-68
2024/01/06 12:00:22;;;;;;;4.53;3.47;;;17.10;52.90;;;;;;5052384;28;20017;-66
2024/01/06 12:02:47;;;;;;;5.00;4.50;;;17.00;53.10;;;;;;5052838;28;20027;-63
2024/01/06 12:05:18;;;;;;;1.63;1.52;;;17.00;53.60;;;;;;5052912;28;20021;-68
2024/01/06 12:07:53;;;;;;;4.80;3.20;;;16.90;53.00;;;;;;5052744;28;20025;-67
2024/01/06 12:10:21;;;;;;;6.10;5.50;;;17.00;53.50;;;;;;5052783;28;20021;-73
2024/01/06 12:13:01;;;;;;;4.93;4.40;;;16.90;54.40;;;;;;5052804;28;20021;-63
2024/01/06 12:15:28;;;;;;;4.22;3.70;;;16.90;54.30;;;;;;5051462;28;20395;-67
2024/01/06 12:17:54;;;;;;;5.32;4.68;;;17.00;54.60;;;;;;5052799;28;20131;-65
2024/01/06 12:20:23;;;;;;;4.53;3.22;;;17.10;54.10;;;;;;5052528;28;20495;-69
2024/01/06 12:22:51;;;;;;;8.40;6.70;;;17.10;53.90;;;;;;5052635;28;20039;-62
2024/01/06 12:25:17;;;;;;;6.95;6.18;;;17.10;54.20;;;;;;5052428;28;20017;-67
2024/01/06 12:27:44;;;;;;;6.63;5.93;;;17.10;54.10;;;;;;5052361;28;20502;-69
2024/01/06 12:30:20;;;;;;;7.20;6.28;;;17.10;54.60;;;;;;5052468;28;20024;-62